createdAt,value
2018-04-26T00:00:12.817Z,0.00
2018-04-26T00:01:13.010Z,0.00
2018-04-26T00:03:45.102Z,0.00
2018-04-26T00:04:45.278Z,0.00
2018-04-26T00:05:45.476Z,0.00
2018-04-26T00:06:45.677Z,0.00
2018-04-26T00:07:45.858Z,0.00
2018-04-26T00:10:18.189Z,0.00
2018-04-26T00:11:18.355Z,0.00
2018-04-26T00:12:18.542Z,0.00
2018-04-26T00:13:18.734Z,0.00
2018-04-26T00:14:18.931Z,0.00
2018-04-26T00:15:19.132Z,0.00
2018-04-26T00:16:19.318Z,0.00
2018-04-26T00:17:19.526Z,0.00
2018-04-26T00:19:51.615Z,0.00
2018-04-26T00:20:51.783Z,0.00
2018-04-26T00:21:51.973Z,0.00
2018-04-26T00:22:52.149Z,0.00
2018-04-26T00:23:52.355Z,0.00
2018-04-26T00:24:52.560Z,0.00
2018-04-26T00:25:52.752Z,0.00
2018-04-26T00:26:52.936Z,0.00
2018-04-26T00:27:53.252Z,0.00
2018-04-26T00:28:53.330Z,0.00
2018-04-26T00:29:53.537Z,0.00
2018-04-26T00:30:53.746Z,0.00
2018-04-26T00:31:53.948Z,0.00
2018-04-26T00:32:54.155Z,0.00
2018-04-26T00:33:54.340Z,0.00
2018-04-26T00:34:54.522Z,0.00
2018-04-26T00:35:54.707Z,0.00
2018-04-26T00:36:54.897Z,0.00
2018-04-26T00:37:55.096Z,0.00
2018-04-26T00:38:55.289Z,0.00
2018-04-26T00:39:55.492Z,0.00
2018-04-26T00:40:55.680Z,0.00
2018-04-26T00:41:55.865Z,0.00
2018-04-26T00:42:56.046Z,0.00
2018-04-26T00:43:56.241Z,0.00
2018-04-26T00:44:56.428Z,0.00
2018-04-26T00:45:56.630Z,0.00
2018-04-26T00:46:56.884Z,0.00
2018-04-26T00:47:57.104Z,0.00
2018-04-26T00:48:57.250Z,0.00
2018-04-26T00:49:57.448Z,0.00
2018-04-26T00:50:57.647Z,0.00
2018-04-26T00:51:57.856Z,0.00
2018-04-26T00:52:58.110Z,0.00
2018-04-26T00:53:58.241Z,0.00
2018-04-26T00:54:58.428Z,0.00
2018-04-26T00:55:58.606Z,0.00
2018-04-26T00:56:58.792Z,0.00
2018-04-26T00:57:58.993Z,0.00
2018-04-26T00:58:59.186Z,0.00
2018-04-26T00:59:59.437Z,0.00
2018-04-26T01:00:59.619Z,0.00
2018-04-26T01:01:59.819Z,0.00
2018-04-26T01:03:00.010Z,0.00
2018-04-26T01:04:00.201Z,0.00
2018-04-26T01:05:00.381Z,0.00
2018-04-26T01:06:00.566Z,0.00
2018-04-26T01:07:00.778Z,0.00
2018-04-26T01:08:00.984Z,0.00
2018-04-26T01:09:01.183Z,0.00
2018-04-26T01:10:01.390Z,0.00
2018-04-26T01:11:01.570Z,0.00
2018-04-26T01:12:01.767Z,0.00
2018-04-26T01:13:01.950Z,0.00
2018-04-26T01:14:02.145Z,0.00
2018-04-26T01:16:34.415Z,0.00
2018-04-26T01:17:34.584Z,0.00
2018-04-26T01:18:34.790Z,0.00
2018-04-26T01:19:34.997Z,0.00
2018-04-26T01:22:06.843Z,0.00
2018-04-26T01:23:07.010Z,0.00
2018-04-26T01:24:07.227Z,0.00
2018-04-26T01:25:07.428Z,0.00
2018-04-26T01:26:07.603Z,0.00
2018-04-26T01:27:07.797Z,0.00
2018-04-26T01:28:07.996Z,0.00
2018-04-26T01:29:08.197Z,0.00
2018-04-26T01:30:08.387Z,0.00
2018-04-26T01:31:08.581Z,0.00
2018-04-26T01:32:08.760Z,0.00
2018-04-26T01:33:08.965Z,0.00
2018-04-26T01:34:09.169Z,0.00
2018-04-26T01:35:09.367Z,0.00
2018-04-26T01:36:09.571Z,0.00
2018-04-26T01:38:43.411Z,0.00
2018-04-26T01:39:41.957Z,0.00
2018-04-26T01:40:42.135Z,0.00
2018-04-26T01:41:42.321Z,0.00
2018-04-26T01:42:42.552Z,0.00
2018-04-26T01:43:42.764Z,0.00
2018-04-26T01:44:42.936Z,0.00
2018-04-26T01:45:43.130Z,0.00
2018-04-26T01:46:43.325Z,0.00
2018-04-26T01:47:43.508Z,0.00
2018-04-26T01:48:43.690Z,0.00
2018-04-26T01:49:43.867Z,0.00
2018-04-26T01:50:44.054Z,0.00
2018-04-26T01:51:44.239Z,0.00
2018-04-26T01:52:44.421Z,0.00
2018-04-26T01:53:44.619Z,0.00
2018-04-26T01:54:44.804Z,0.00
2018-04-26T01:55:45.009Z,0.00
2018-04-26T01:56:45.346Z,0.00
2018-04-26T01:57:45.434Z,0.00
2018-04-26T01:58:45.636Z,0.00
2018-04-26T01:59:45.829Z,0.00
2018-04-26T02:00:46.035Z,0.00
2018-04-26T02:01:46.221Z,0.00
2018-04-26T02:02:46.399Z,0.00
2018-04-26T02:03:46.590Z,0.00
2018-04-26T02:04:46.805Z,0.00
2018-04-26T02:05:47.009Z,0.00
2018-04-26T02:06:47.195Z,0.00
2018-04-26T02:07:47.446Z,0.00
2018-04-26T02:08:47.641Z,0.00
2018-04-26T02:09:47.820Z,0.00
2018-04-26T02:10:48.022Z,0.00
2018-04-26T02:11:48.224Z,0.00
2018-04-26T02:12:48.402Z,0.00
2018-04-26T02:13:48.618Z,0.00
2018-04-26T02:14:48.820Z,0.00
2018-04-26T02:15:49.002Z,0.00
2018-04-26T02:16:49.198Z,0.00
2018-04-26T02:17:49.391Z,0.00
2018-04-26T02:20:23.228Z,0.00
2018-04-26T02:21:21.646Z,0.00
2018-04-26T02:22:21.820Z,0.00
2018-04-26T02:23:22.006Z,0.00
2018-04-26T02:24:22.189Z,0.00
2018-04-26T02:25:22.369Z,0.00
2018-04-26T02:26:22.567Z,0.00
2018-04-26T02:27:22.784Z,0.00
2018-04-26T02:28:22.973Z,0.00
2018-04-26T02:29:23.176Z,0.00
2018-04-26T02:30:23.375Z,0.00
2018-04-26T02:31:23.561Z,0.00
2018-04-26T02:32:23.768Z,0.00
2018-04-26T02:33:23.955Z,0.00
2018-04-26T02:34:24.158Z,0.00
2018-04-26T02:35:24.336Z,0.00
2018-04-26T02:36:24.522Z,0.00
2018-04-26T02:37:24.702Z,0.00
2018-04-26T02:38:25.008Z,0.00
2018-04-26T02:39:25.075Z,0.00
2018-04-26T02:40:25.249Z,0.00
2018-04-26T02:41:25.463Z,0.00
2018-04-26T02:42:25.640Z,0.00
2018-04-26T02:43:25.833Z,0.00
2018-04-26T02:44:26.035Z,0.00
2018-04-26T02:45:26.220Z,0.00
2018-04-26T02:46:26.425Z,0.00
2018-04-26T02:47:26.632Z,0.00
2018-04-26T02:48:26.819Z,0.00
2018-04-26T02:49:27.007Z,0.00
2018-04-26T02:50:27.204Z,0.00
2018-04-26T02:51:27.398Z,0.00
2018-04-26T02:52:27.580Z,0.00
2018-04-26T02:53:27.773Z,0.00
2018-04-26T02:54:27.976Z,0.00
2018-04-26T02:55:28.182Z,0.00
2018-04-26T02:56:28.379Z,0.00
2018-04-26T02:59:00.474Z,0.00
2018-04-26T03:00:00.642Z,0.00
2018-04-26T03:01:00.836Z,0.00
2018-04-26T03:02:01.038Z,0.00
2018-04-26T03:03:01.244Z,0.00
2018-04-26T03:04:01.419Z,0.00
2018-04-26T03:05:01.619Z,0.00
2018-04-26T03:06:01.807Z,0.00
2018-04-26T03:07:02.010Z,0.00
2018-04-26T03:08:02.195Z,0.00
2018-04-26T03:09:02.380Z,0.00
2018-04-26T03:10:02.576Z,0.00
2018-04-26T03:11:02.766Z,0.00
2018-04-26T03:12:03.057Z,0.00
2018-04-26T03:13:03.140Z,0.00
2018-04-26T03:14:03.319Z,0.00
2018-04-26T03:15:03.521Z,0.00
2018-04-26T03:16:03.717Z,0.00
2018-04-26T03:17:03.909Z,0.00
2018-04-26T03:18:04.090Z,0.00
2018-04-26T03:19:04.298Z,0.00
2018-04-26T03:20:04.487Z,0.00
2018-04-26T03:21:04.667Z,0.00
2018-04-26T03:22:04.876Z,0.00
2018-04-26T03:23:05.060Z,0.00
2018-04-26T03:24:05.260Z,0.00
2018-04-26T03:25:05.481Z,4.00
2018-04-26T03:26:05.644Z,4.00
2018-04-26T03:27:05.830Z,0.00
2018-04-26T03:28:06.023Z,0.00
2018-04-26T03:29:06.217Z,4.00
2018-04-26T03:30:06.407Z,0.00
2018-04-26T03:31:06.713Z,4.00
2018-04-26T03:32:06.794Z,4.00
2018-04-26T03:33:07.003Z,8.00
2018-04-26T03:34:07.201Z,8.00
2018-04-26T03:35:07.383Z,8.00
2018-04-26T03:36:07.560Z,8.00
2018-04-26T03:37:07.765Z,12.00
2018-04-26T03:38:07.966Z,12.00
2018-04-26T03:39:08.173Z,16.00
2018-04-26T03:40:08.357Z,20.00
2018-04-26T03:41:08.544Z,20.00
2018-04-26T03:42:08.727Z,20.00
2018-04-26T03:43:08.906Z,28.00
2018-04-26T03:44:09.106Z,32.00
2018-04-26T03:45:09.312Z,36.00
2018-04-26T03:46:09.483Z,44.00
2018-04-26T03:47:09.666Z,52.00
2018-04-26T03:48:09.848Z,56.00
2018-04-26T03:49:10.024Z,68.00
2018-04-26T03:50:10.214Z,76.00
2018-04-26T03:51:10.384Z,88.00
2018-04-26T03:52:10.569Z,100.00
2018-04-26T03:54:42.666Z,136.00
2018-04-26T03:55:42.835Z,152.00
2018-04-26T03:56:43.018Z,172.00
2018-04-26T03:57:43.227Z,192.00
2018-04-26T03:58:43.424Z,216.00
2018-04-26T03:59:43.610Z,240.00
2018-04-26T04:00:43.804Z,264.00
2018-04-26T04:01:44.004Z,292.00
2018-04-26T04:02:44.189Z,324.00
2018-04-26T04:03:44.373Z,356.00
2018-04-26T04:04:44.565Z,392.00
2018-04-26T04:05:44.830Z,432.00
2018-04-26T04:06:44.960Z,468.00
2018-04-26T04:07:45.154Z,512.00
2018-04-26T04:08:45.340Z,552.00
2018-04-26T04:09:45.545Z,600.00
2018-04-26T04:10:45.724Z,648.00
2018-04-26T04:11:45.917Z,704.00
2018-04-26T04:12:46.128Z,760.00
2018-04-26T04:15:19.458Z,916.00
2018-04-26T04:16:18.132Z,976.00
2018-04-26T04:17:18.310Z,1044.00
2018-04-26T04:18:18.509Z,1124.00
2018-04-26T04:19:18.705Z,1196.00
2018-04-26T04:20:18.902Z,1272.00
2018-04-26T04:22:51.012Z,1432.00
2018-04-26T04:23:51.213Z,1512.00
2018-04-26T04:24:51.449Z,1616.00
2018-04-26T04:25:51.600Z,1716.00
2018-04-26T04:26:51.808Z,1812.00
2018-04-26T04:29:23.892Z,2068.00
2018-04-26T04:30:24.064Z,2208.00
2018-04-26T04:31:24.261Z,2400.00
2018-04-26T04:32:24.446Z,2576.00
2018-04-26T04:33:24.628Z,2892.00
2018-04-26T04:34:24.952Z,2916.00
2018-04-26T04:35:25.109Z,3364.00
2018-04-26T04:36:25.208Z,3296.00
2018-04-26T04:37:25.403Z,3460.00
2018-04-26T04:38:25.573Z,4236.00
2018-04-26T04:39:25.768Z,4668.00
2018-04-26T04:40:25.968Z,4256.00
2018-04-26T04:41:26.177Z,4916.00
2018-04-26T04:42:26.374Z,4408.00
2018-04-26T04:43:26.548Z,5088.00
2018-04-26T04:44:26.748Z,5504.00
2018-04-26T04:45:26.942Z,6644.00
2018-04-26T04:46:27.120Z,7320.00
2018-04-26T04:47:27.320Z,7912.00
2018-04-26T04:48:27.531Z,6672.00
2018-04-26T04:49:27.742Z,5980.00
2018-04-26T04:50:27.922Z,7924.00
2018-04-26T04:51:28.097Z,9504.00
2018-04-26T04:52:28.275Z,9672.00
2018-04-26T04:53:28.470Z,9764.00
2018-04-26T04:54:28.662Z,13088.00
2018-04-26T04:55:28.869Z,14176.00
2018-04-26T04:56:29.086Z,15808.00
2018-04-26T04:57:29.293Z,16064.00
2018-04-26T04:58:29.490Z,15392.00
2018-04-26T04:59:29.693Z,18528.00
2018-04-26T05:00:29.892Z,23232.00
2018-04-26T05:01:30.164Z,24672.00
2018-04-26T05:02:30.293Z,24960.00
2018-04-26T05:03:30.481Z,25248.00
2018-04-26T05:04:30.663Z,23520.00
2018-04-26T05:05:30.857Z,7316.00
2018-04-26T05:06:31.041Z,7784.00
2018-04-26T05:07:31.247Z,5960.00
2018-04-26T05:08:31.452Z,5216.00
2018-04-26T05:09:31.651Z,4800.00
2018-04-26T05:10:31.841Z,4952.00
2018-04-26T05:11:32.053Z,4976.00
2018-04-26T05:12:32.258Z,5340.00
2018-04-26T05:13:32.487Z,5984.00
2018-04-26T05:14:32.670Z,6372.00
2018-04-26T05:15:32.877Z,6168.00
2018-04-26T05:16:33.063Z,5668.00
2018-04-26T05:17:33.256Z,5232.00
2018-04-26T05:18:33.471Z,4556.00
2018-04-26T05:19:33.668Z,4328.00
2018-04-26T05:20:33.850Z,4456.00
2018-04-26T05:21:34.051Z,4984.00
2018-04-26T05:22:34.242Z,5628.00
2018-04-26T05:23:34.446Z,5824.00
2018-04-26T05:24:34.638Z,5832.00
2018-04-26T05:25:34.920Z,7224.00
2018-04-26T05:26:35.056Z,9692.00
2018-04-26T05:27:35.295Z,9536.00
2018-04-26T05:28:35.477Z,20832.00
2018-04-26T05:29:35.668Z,26560.00
2018-04-26T05:30:35.925Z,14524.00
2018-04-26T05:31:36.041Z,45568.00
2018-04-26T05:32:36.248Z,42656.00
2018-04-26T05:33:36.459Z,39904.00
2018-04-26T05:34:36.662Z,40832.00
2018-04-26T05:35:36.845Z,40352.00
2018-04-26T05:36:37.041Z,40832.00
2018-04-26T05:37:37.234Z,42208.00
2018-04-26T05:38:37.500Z,42464.00
2018-04-26T05:39:37.574Z,42080.00
2018-04-26T05:40:37.794Z,43616.00
2018-04-26T05:41:37.950Z,40000.00
2018-04-26T05:42:38.131Z,44928.00
2018-04-26T05:43:38.332Z,42176.00
2018-04-26T05:44:38.554Z,30304.00
2018-04-26T05:45:38.738Z,40992.00
2018-04-26T05:46:38.940Z,50592.00
2018-04-26T05:47:39.157Z,49504.00
2018-04-26T05:48:39.343Z,52320.00
2018-04-26T05:49:39.524Z,54016.00
2018-04-26T05:50:39.726Z,54560.00
2018-04-26T05:51:39.930Z,53888.00
2018-04-26T05:52:40.138Z,43136.00
2018-04-26T05:55:12.421Z,54656.00
2018-04-26T05:56:12.595Z,58208.00
2018-04-26T05:57:12.800Z,57952.00
2018-04-26T05:58:12.999Z,58528.00
2018-04-26T05:59:13.213Z,58208.00
2018-04-26T06:00:13.413Z,59296.00
2018-04-26T06:01:13.625Z,60928.00
2018-04-26T06:02:13.831Z,60704.00
2018-04-26T06:03:14.013Z,60384.00
2018-04-26T06:04:14.197Z,15984.00
2018-04-26T06:05:14.396Z,18592.00
2018-04-26T06:06:14.602Z,17632.00
2018-04-26T06:07:14.813Z,16736.00
2018-04-26T06:08:15.001Z,16128.00
2018-04-26T06:09:15.202Z,15592.00
2018-04-26T06:10:15.391Z,47360.00
2018-04-26T06:11:15.627Z,19968.00
2018-04-26T06:12:15.792Z,15468.00
2018-04-26T06:13:16.005Z,22304.00
2018-04-26T06:14:16.191Z,16608.00
2018-04-26T06:15:16.405Z,11872.00
2018-04-26T06:16:16.609Z,9620.00
2018-04-26T06:17:16.805Z,8712.00
2018-04-26T06:18:17.017Z,8160.00
2018-04-26T06:19:17.201Z,8128.00
2018-04-26T06:20:17.392Z,8208.00
2018-04-26T06:21:17.609Z,8340.00
2018-04-26T06:22:17.804Z,8388.00
2018-04-26T06:23:18.017Z,8148.00
2018-04-26T06:24:18.211Z,9256.00
2018-04-26T06:25:18.392Z,9376.00
2018-04-26T06:26:18.603Z,8984.00
2018-04-26T06:27:18.793Z,8144.00
2018-04-26T06:28:19.122Z,6452.00
2018-04-26T06:29:19.203Z,5768.00
2018-04-26T06:30:19.392Z,9144.00
2018-04-26T06:31:19.593Z,33856.00
2018-04-26T06:32:19.783Z,58976.00
2018-04-26T06:33:19.973Z,29472.00
2018-04-26T06:34:20.152Z,60256.00
2018-04-26T06:35:20.343Z,16640.00
2018-04-26T06:36:20.551Z,13796.00
2018-04-26T06:37:20.743Z,14344.00
2018-04-26T06:38:20.956Z,12864.00
2018-04-26T06:39:21.158Z,11900.00
2018-04-26T06:40:21.352Z,13296.00
2018-04-26T06:41:21.557Z,14460.00
2018-04-26T06:42:21.781Z,16448.00
2018-04-26T06:43:21.974Z,15296.00
2018-04-26T06:44:22.158Z,13928.00
2018-04-26T06:45:22.351Z,10736.00
2018-04-26T06:46:22.541Z,13992.00
2018-04-26T06:47:22.752Z,13108.00
2018-04-26T06:48:22.939Z,10796.00
2018-04-26T06:49:23.122Z,10444.00
2018-04-26T06:50:23.331Z,12032.00
2018-04-26T06:51:23.531Z,13716.00
2018-04-26T06:52:23.718Z,13056.00
2018-04-26T06:53:24.017Z,12260.00
2018-04-26T06:54:24.145Z,10412.00
2018-04-26T06:55:24.343Z,8004.00
2018-04-26T06:56:24.552Z,6492.00
2018-04-26T06:57:24.767Z,6332.00
2018-04-26T06:58:24.965Z,6048.00
2018-04-26T06:59:25.159Z,6060.00
2018-04-26T07:00:25.401Z,6172.00
2018-04-26T07:01:25.553Z,5284.00
2018-04-26T07:02:25.733Z,5012.00
2018-04-26T07:03:25.922Z,4468.00
2018-04-26T07:04:26.131Z,4700.00
2018-04-26T07:05:26.313Z,5452.00
2018-04-26T07:06:26.513Z,4832.00
2018-04-26T07:07:26.692Z,4088.00
2018-04-26T07:08:26.904Z,5680.00
2018-04-26T07:09:27.092Z,8900.00
2018-04-26T07:10:27.273Z,12348.00
2018-04-26T07:11:27.489Z,16288.00
2018-04-26T07:12:27.698Z,23264.00
2018-04-26T07:13:27.879Z,21888.00
2018-04-26T07:14:28.073Z,14776.00
2018-04-26T07:15:28.269Z,28256.00
2018-04-26T07:16:28.454Z,81792.00
2018-04-26T07:17:28.663Z,59520.00
2018-04-26T07:18:28.900Z,92288.00
2018-04-26T07:19:29.092Z,75072.00
2018-04-26T07:20:29.310Z,33760.00
2018-04-26T07:21:29.499Z,22720.00
2018-04-26T07:22:29.690Z,18944.00
2018-04-26T07:23:29.900Z,19488.00
2018-04-26T07:24:30.085Z,24160.00
2018-04-26T07:25:30.292Z,83936.00
2018-04-26T07:26:30.478Z,36128.00
2018-04-26T07:27:30.681Z,48448.00
2018-04-26T07:28:30.895Z,80896.00
2018-04-26T07:29:31.178Z,96544.00
2018-04-26T07:30:31.261Z,17344.00
2018-04-26T07:31:31.451Z,63104.00
2018-04-26T07:32:31.648Z,54528.00
2018-04-26T07:33:31.870Z,67904.00
2018-04-26T07:34:32.070Z,101248.00
2018-04-26T07:35:32.268Z,100160.00
2018-04-26T07:36:32.471Z,71744.00
2018-04-26T07:37:32.674Z,83488.00
2018-04-26T07:38:32.881Z,42560.00
2018-04-26T07:39:33.090Z,22080.00
2018-04-26T07:40:33.328Z,14876.00
2018-04-26T07:41:33.540Z,14868.00
2018-04-26T07:42:33.752Z,20768.00
2018-04-26T07:43:33.960Z,27360.00
2018-04-26T07:44:34.162Z,19072.00
2018-04-26T07:45:34.371Z,16288.00
2018-04-26T07:46:34.565Z,14828.00
2018-04-26T07:47:34.751Z,15680.00
2018-04-26T07:48:34.963Z,17440.00
2018-04-26T07:49:35.153Z,21056.00
2018-04-26T07:50:35.346Z,31456.00
2018-04-26T07:51:35.540Z,26336.00
2018-04-26T07:52:35.752Z,36960.00
2018-04-26T07:53:35.953Z,28608.00
2018-04-26T07:54:36.160Z,27520.00
2018-04-26T07:55:36.362Z,108224.00
2018-04-26T07:56:36.561Z,32864.00
2018-04-26T07:57:36.772Z,21280.00
2018-04-26T07:58:37.031Z,105664.00
2018-04-26T07:59:37.215Z,103296.00
2018-04-26T08:00:37.402Z,102432.00
2018-04-26T08:01:37.697Z,103648.00
2018-04-26T08:02:37.808Z,89152.00
2018-04-26T08:03:38.021Z,102624.00
2018-04-26T08:04:38.238Z,101984.00
2018-04-26T08:05:38.444Z,98816.00
2018-04-26T08:06:38.657Z,100000.00
2018-04-26T08:07:38.890Z,54336.00
2018-04-26T08:08:39.091Z,93568.00
2018-04-26T08:09:39.283Z,20768.00
2018-04-26T08:10:39.466Z,100992.00
2018-04-26T08:11:39.713Z,34240.00
2018-04-26T08:12:39.886Z,85792.00
2018-04-26T08:13:40.082Z,100832.00
2018-04-26T08:14:40.291Z,101600.00
2018-04-26T08:15:40.483Z,102368.00
2018-04-26T08:16:40.690Z,100224.00
2018-04-26T08:17:40.891Z,102080.00
2018-04-26T08:18:41.110Z,27104.00
2018-04-26T08:19:41.404Z,113888.00
2018-04-26T08:20:41.512Z,21344.00
2018-04-26T08:21:41.726Z,15432.00
2018-04-26T08:22:41.945Z,29312.00
2018-04-26T08:23:42.141Z,14772.00
2018-04-26T08:24:42.361Z,81920.00
2018-04-26T08:25:42.550Z,21856.00
2018-04-26T08:26:42.754Z,38624.00
2018-04-26T08:27:42.951Z,100704.00
2018-04-26T08:28:43.291Z,98752.00
2018-04-26T08:29:43.375Z,98784.00
2018-04-26T08:30:43.593Z,79328.00
2018-04-26T08:31:43.791Z,25728.00
2018-04-26T08:34:16.699Z,97792.00
2018-04-26T08:35:16.257Z,97984.00
2018-04-26T08:36:16.459Z,99200.00
2018-04-26T08:37:16.666Z,101536.00
2018-04-26T08:38:16.859Z,102240.00
2018-04-26T08:39:17.053Z,95168.00
2018-04-26T08:40:17.278Z,90368.00
2018-04-26T08:41:17.487Z,45824.00
2018-04-26T08:42:17.715Z,88544.00
2018-04-26T08:43:17.924Z,87328.00
2018-04-26T08:44:18.118Z,90688.00
2018-04-26T08:45:18.320Z,91840.00
2018-04-26T08:46:18.508Z,90944.00
2018-04-26T08:47:18.705Z,88928.00
2018-04-26T08:48:18.919Z,86080.00
2018-04-26T08:49:19.108Z,85088.00
2018-04-26T08:50:19.313Z,85952.00
2018-04-26T08:51:19.502Z,85824.00
2018-04-26T08:52:19.743Z,80896.00
2018-04-26T08:53:19.895Z,78976.00
2018-04-26T08:54:20.103Z,77408.00
2018-04-26T08:55:20.305Z,27712.00
2018-04-26T08:56:20.499Z,99616.00
2018-04-26T08:57:20.764Z,107456.00
2018-04-26T08:58:20.858Z,87136.00
2018-04-26T08:59:21.061Z,112864.00
2018-04-26T09:00:21.264Z,105824.00
2018-04-26T09:01:21.482Z,95360.00
2018-04-26T09:02:21.692Z,84256.00
2018-04-26T09:03:21.906Z,75936.00
2018-04-26T09:04:22.126Z,72992.00
2018-04-26T09:05:22.339Z,77216.00
2018-04-26T09:06:22.541Z,82336.00
2018-04-26T09:08:54.752Z,90656.00
2018-04-26T09:09:54.806Z,92736.00
2018-04-26T09:10:54.999Z,90496.00
2018-04-26T09:11:55.212Z,87840.00
2018-04-26T09:12:55.432Z,86464.00
2018-04-26T09:13:55.620Z,81280.00
2018-04-26T09:14:55.829Z,89056.00
2018-04-26T09:15:56.107Z,91424.00
2018-04-26T09:16:56.241Z,26112.00
2018-04-26T09:17:56.454Z,74688.00
2018-04-26T09:18:56.650Z,29024.00
2018-04-26T09:19:56.840Z,76928.00
2018-04-26T09:20:57.047Z,92960.00
2018-04-26T09:21:57.265Z,39520.00
2018-04-26T09:22:57.468Z,24192.00
2018-04-26T09:23:57.662Z,19776.00
2018-04-26T09:24:57.864Z,15532.00
2018-04-26T09:25:58.070Z,14100.00
2018-04-26T09:26:58.282Z,14468.00
2018-04-26T09:27:58.498Z,12632.00
2018-04-26T09:28:58.712Z,88192.00
2018-04-26T09:29:58.957Z,89664.00
2018-04-26T09:30:59.101Z,25440.00
2018-04-26T09:31:59.347Z,90816.00
2018-04-26T09:32:59.543Z,89280.00
2018-04-26T09:33:59.757Z,90784.00
2018-04-26T09:34:59.951Z,46048.00
2018-04-26T09:36:00.153Z,90944.00
2018-04-26T09:37:00.370Z,23904.00
2018-04-26T09:38:00.599Z,56320.00
2018-04-26T09:39:00.867Z,51200.00
2018-04-26T09:40:01.054Z,90784.00
2018-04-26T09:41:01.273Z,87808.00
2018-04-26T09:42:01.467Z,89504.00
2018-04-26T09:43:01.678Z,87008.00
2018-04-26T09:44:01.906Z,96480.00
2018-04-26T09:45:02.123Z,26688.00
2018-04-26T09:46:02.321Z,24480.00
2018-04-26T09:47:02.529Z,21856.00
2018-04-26T09:48:02.743Z,20064.00
2018-04-26T09:49:02.934Z,18176.00
2018-04-26T09:50:03.155Z,16608.00
2018-04-26T09:51:03.352Z,16640.00
2018-04-26T09:52:03.576Z,13544.00
2018-04-26T09:53:03.788Z,10572.00
2018-04-26T09:54:04.040Z,7876.00
2018-04-26T09:55:04.171Z,6308.00
2018-04-26T09:56:04.385Z,5392.00
2018-04-26T09:57:04.582Z,4484.00
2018-04-26T09:58:04.800Z,3676.00
2018-04-26T09:59:04.988Z,3480.00
2018-04-26T10:00:05.197Z,4248.00
2018-04-26T10:01:05.422Z,5560.00
2018-04-26T10:02:05.634Z,7444.00
2018-04-26T10:03:05.831Z,26720.00
2018-04-26T10:04:06.033Z,62400.00
2018-04-26T10:05:06.221Z,75488.00
2018-04-26T10:06:06.434Z,83776.00
2018-04-26T10:07:06.653Z,33376.00
2018-04-26T10:08:06.832Z,20032.00
2018-04-26T10:09:07.041Z,16256.00
2018-04-26T10:10:07.355Z,12868.00
2018-04-26T10:11:07.434Z,9984.00
2018-04-26T10:12:07.619Z,7164.00
2018-04-26T10:13:07.824Z,4796.00
2018-04-26T10:14:08.027Z,3424.00
2018-04-26T10:15:08.311Z,2744.00
2018-04-26T10:16:08.424Z,2472.00
2018-04-26T10:17:08.621Z,2616.00
2018-04-26T10:18:08.843Z,3144.00
2018-04-26T10:19:09.056Z,3800.00
2018-04-26T10:20:09.257Z,4544.00
2018-04-26T10:21:09.519Z,5324.00
2018-04-26T10:22:09.663Z,6016.00
2018-04-26T10:23:09.853Z,6560.00
2018-04-26T10:24:10.044Z,7612.00
2018-04-26T10:25:10.225Z,8548.00
2018-04-26T10:26:10.417Z,9908.00
2018-04-26T10:27:10.617Z,12072.00
2018-04-26T10:28:10.815Z,23872.00
2018-04-26T10:29:11.015Z,24736.00
2018-04-26T10:30:11.221Z,49472.00
2018-04-26T10:31:11.431Z,19936.00
2018-04-26T10:32:11.623Z,37952.00
2018-04-26T10:33:11.830Z,22208.00
2018-04-26T10:34:12.049Z,17344.00
2018-04-26T10:35:12.238Z,41472.00
2018-04-26T10:36:12.423Z,69888.00
2018-04-26T10:37:12.620Z,70560.00
2018-04-26T10:38:12.807Z,33792.00
2018-04-26T10:39:13.006Z,26944.00
2018-04-26T10:40:13.226Z,21280.00
2018-04-26T10:41:13.418Z,18240.00
2018-04-26T10:42:13.630Z,22752.00
2018-04-26T10:43:13.824Z,14932.00
2018-04-26T10:44:14.053Z,15044.00
2018-04-26T10:45:14.203Z,28256.00
2018-04-26T10:46:14.399Z,57504.00
2018-04-26T10:47:14.582Z,49984.00
2018-04-26T10:48:14.777Z,22496.00
2018-04-26T10:49:14.966Z,14356.00
2018-04-26T10:50:15.177Z,11772.00
2018-04-26T10:51:15.370Z,10444.00
2018-04-26T10:52:15.562Z,9572.00
2018-04-26T10:53:15.760Z,9256.00
2018-04-26T10:54:15.970Z,10768.00
2018-04-26T10:55:16.171Z,17888.00
2018-04-26T10:56:16.364Z,17376.00
2018-04-26T10:57:16.567Z,15400.00
2018-04-26T10:58:16.769Z,16064.00
2018-04-26T10:59:16.984Z,20128.00
2018-04-26T11:00:17.179Z,17248.00
2018-04-26T11:01:17.361Z,15072.00
2018-04-26T11:02:17.565Z,13200.00
2018-04-26T11:03:17.766Z,12120.00
2018-04-26T11:04:17.958Z,12820.00
2018-04-26T11:05:18.150Z,13660.00
2018-04-26T11:06:18.336Z,15268.00
2018-04-26T11:07:18.540Z,22112.00
2018-04-26T11:08:18.736Z,18688.00
2018-04-26T11:09:19.020Z,19456.00
2018-04-26T11:10:19.136Z,31232.00
2018-04-26T11:11:19.486Z,26752.00
2018-04-26T11:12:19.562Z,25952.00
2018-04-26T11:13:19.756Z,25248.00
2018-04-26T11:14:19.957Z,24128.00
2018-04-26T11:15:20.151Z,22848.00
2018-04-26T11:16:20.358Z,21632.00
2018-04-26T11:17:20.612Z,20672.00
2018-04-26T11:18:20.774Z,20032.00
2018-04-26T11:19:20.961Z,19552.00
2018-04-26T11:21:54.807Z,18496.00
2018-04-26T11:22:53.229Z,18144.00
2018-04-26T11:23:53.436Z,17696.00
2018-04-26T11:24:53.646Z,17184.00
2018-04-26T11:25:53.840Z,16736.00
2018-04-26T11:26:54.044Z,16384.00
2018-04-26T11:27:54.214Z,15988.00
2018-04-26T11:28:54.407Z,16008.00
2018-04-26T11:29:54.620Z,16352.00
2018-04-26T11:30:54.855Z,16704.00
2018-04-26T11:31:55.023Z,15844.00
2018-04-26T11:32:55.231Z,19552.00
2018-04-26T11:33:55.422Z,15052.00
2018-04-26T11:34:55.620Z,18528.00
2018-04-26T11:35:55.828Z,18816.00
2018-04-26T11:36:56.035Z,15648.00
2018-04-26T11:37:56.235Z,18912.00
2018-04-26T11:38:56.431Z,18560.00
2018-04-26T11:39:56.635Z,21056.00
2018-04-26T11:40:56.818Z,16356.00
2018-04-26T11:41:57.002Z,15040.00
2018-04-26T11:42:57.204Z,15912.00
2018-04-26T11:43:57.406Z,15392.00
2018-04-26T11:44:57.620Z,16544.00
2018-04-26T11:45:57.821Z,16800.00
2018-04-26T11:46:58.015Z,20384.00
2018-04-26T11:47:58.215Z,18720.00
2018-04-26T11:48:58.395Z,17152.00
2018-04-26T11:49:58.599Z,17440.00
2018-04-26T11:50:58.810Z,16960.00
2018-04-26T11:51:58.991Z,16800.00
2018-04-26T11:52:59.218Z,15904.00
2018-04-26T11:53:59.427Z,17888.00
2018-04-26T11:54:59.650Z,18112.00
2018-04-26T11:55:59.851Z,18880.00
2018-04-26T11:57:00.061Z,17568.00
2018-04-26T11:58:00.264Z,16672.00
2018-04-26T11:59:00.449Z,16444.00
2018-04-26T12:00:00.664Z,15700.00
2018-04-26T12:01:00.916Z,15260.00
2018-04-26T12:02:01.056Z,15100.00
2018-04-26T12:03:01.256Z,14596.00
2018-04-26T12:04:01.468Z,13480.00
2018-04-26T12:05:01.659Z,14300.00
2018-04-26T12:06:01.871Z,15204.00
2018-04-26T12:07:02.063Z,14380.00
2018-04-26T12:08:02.300Z,13040.00
2018-04-26T12:09:02.462Z,11452.00
2018-04-26T12:10:02.663Z,9980.00
2018-04-26T12:11:02.867Z,8216.00
2018-04-26T12:12:03.075Z,6104.00
2018-04-26T12:13:03.274Z,4756.00
2018-04-26T12:14:03.472Z,4040.00
2018-04-26T12:15:03.681Z,4296.00
2018-04-26T12:16:03.880Z,6536.00
2018-04-26T12:17:04.097Z,9140.00
2018-04-26T12:18:04.303Z,11948.00
2018-04-26T12:19:04.505Z,15552.00
2018-04-26T12:20:04.701Z,15712.00
2018-04-26T12:21:04.893Z,15104.00
2018-04-26T12:22:05.096Z,17248.00
2018-04-26T12:23:05.292Z,18656.00
2018-04-26T12:24:05.505Z,17760.00
2018-04-26T12:25:05.684Z,17280.00
2018-04-26T12:26:05.895Z,16288.00
2018-04-26T12:27:06.088Z,14924.00
2018-04-26T12:28:06.300Z,14316.00
2018-04-26T12:29:06.492Z,14356.00
2018-04-26T12:30:06.741Z,13888.00
2018-04-26T12:31:06.944Z,13852.00
2018-04-26T12:32:07.145Z,14932.00
2018-04-26T12:33:07.332Z,17248.00
2018-04-26T12:34:07.549Z,19040.00
2018-04-26T12:35:07.780Z,17440.00
2018-04-26T12:36:07.937Z,19488.00
2018-04-26T12:37:08.132Z,16544.00
2018-04-26T12:38:08.354Z,17888.00
2018-04-26T12:39:08.523Z,14380.00
2018-04-26T12:40:08.695Z,14428.00